sensor_id;sensor_type;location;lat;lon;timestamp;P1;durP1;ratioP1;P2;durP2;ratioP2
62925;SDS011;55732;52.248;-0.844;2023-07-24T00:02:06;1.70;;;1.60;;
62925;SDS011;55732;52.248;-0.844;2023-07-24T00:04:32;3.00;;;1.80;;
62925;SDS011;55732;52.248;-0.844;2023-07-24T00:06:58;4.50;;;1.30;;
62925;SDS011;55732;52.248;-0.844;2023-07-24T00:09:24;3.80;;;1.70;;
62925;SDS011;55732;52.248;-0.844;2023-07-24T00:11:50;1.20;;;1.10;;
62925;SDS011;55732;52.248;-0.844;2023-07-24T00:14:15;0.80;;;0.80;;
62925;SDS011;55732;52.248;-0.844;2023-07-24T00:16:41;1.00;;;1.00;;
62925;SDS011;55732;52.248;-0.844;2023-07-24T00:19:07;1.00;;;1.00;;
62925;SDS011;55732;52.248;-0.844;2023-07-24T00:21:32;1.10;;;1.10;;
62925;SDS011;55732;52.248;-0.844;2023-07-24T00:23:58;1.00;;;1.00;;
62925;SDS011;55732;52.248;-0.844;2023-07-24T00:26:23;1.00;;;1.00;;
62925;SDS011;55732;52.248;-0.844;2023-07-24T00:28:49;1.20;;;1.20;;
62925;SDS011;55732;52.248;-0.844;2023-07-24T00:31:14;2.30;;;1.10;;
62925;SDS011;55732;52.248;-0.844;2023-07-24T00:33:40;1.10;;;1.10;;
62925;SDS011;55732;52.248;-0.844;2023-07-24T00:36:05;1.00;;;1.00;;
62925;SDS011;55732;52.248;-0.844;2023-07-24T00:38:30;1.60;;;1.50;;
62925;SDS011;55732;52.248;-0.844;2023-07-24T00:40:56;1.60;;;1.10;;
62925;SDS011;55732;52.248;-0.844;2023-07-24T00:43:21;1.00;;;1.00;;
62925;SDS011;55732;52.248;-0.844;2023-07-24T00:45:47;1.80;;;1.50;;
62925;SDS011;55732;52.248;-0.844;2023-07-24T00:48:13;1.40;;;1.30;;
62925;SDS011;55732;52.248;-0.844;2023-07-24T00:50:39;2.70;;;1.40;;
62925;SDS011;55732;52.248;-0.844;2023-07-24T00:53:11;1.20;;;1.10;;
62925;SDS011;55732;52.248;-0.844;2023-07-24T00:55:38;1.30;;;1.20;;
62925;SDS011;55732;52.248;-0.844;2023-07-24T00:58:04;1.40;;;1.30;;
62925;SDS011;55732;52.248;-0.844;2023-07-24T01:00:30;1.40;;;1.30;;
62925;SDS011;55732;52.248;-0.844;2023-07-24T01:02:56;3.80;;;1.30;;
62925;SDS011;55732;52.248;-0.844;2023-07-24T01:07:50;1.40;;;1.00;;
62925;SDS011;55732;52.248;-0.844;2023-07-24T01:10:17;1.10;;;0.90;;
62925;SDS011;55732;52.248;-0.844;2023-07-24T01:12:45;1.10;;;1.10;;
62925;SDS011;55732;52.248;-0.844;2023-07-24T01:15:20;0.80;;;0.80;;
62925;SDS011;55732;52.248;-0.844;2023-07-24T01:17:57;0.80;;;0.80;;
62925;SDS011;55732;52.248;-0.844;2023-07-24T01:20:31;1.30;;;1.30;;
62925;SDS011;55732;52.248;-0.844;2023-07-24T01:25:51;2.30;;;1.30;;
62925;SDS011;55732;52.248;-0.844;2023-07-24T01:28:19;1.10;;;0.90;;
62925;SDS011;55732;52.248;-0.844;2023-07-24T01:30:45;1.60;;;1.00;;
62925;SDS011;55732;52.248;-0.844;2023-07-24T01:33:10;1.30;;;1.30;;
62925;SDS011;55732;52.248;-0.844;2023-07-24T01:35:36;1.30;;;1.20;;
62925;SDS011;55732;52.248;-0.844;2023-07-24T01:38:03;1.30;;;1.20;;
62925;SDS011;55732;52.248;-0.844;2023-07-24T01:40:29;1.60;;;1.20;;
62925;SDS011;55732;52.248;-0.844;2023-07-24T01:42:56;2.20;;;1.10;;
62925;SDS011;55732;52.248;-0.844;2023-07-24T01:45:24;2.70;;;1.10;;
62925;SDS011;55732;52.248;-0.844;2023-07-24T01:47:50;1.00;;;1.00;;
62925;SDS011;55732;52.248;-0.844;2023-07-24T01:50:15;0.90;;;0.90;;
62925;SDS011;55732;52.248;-0.844;2023-07-24T01:52:41;1.50;;;0.90;;
62925;SDS011;55732;52.248;-0.844;2023-07-24T01:55:07;0.80;;;0.80;;
62925;SDS011;55732;52.248;-0.844;2023-07-24T01:57:34;2.40;;;0.80;;
62925;SDS011;55732;52.248;-0.844;2023-07-24T01:59:59;0.80;;;0.80;;
62925;SDS011;55732;52.248;-0.844;2023-07-24T02:02:25;0.90;;;0.90;;
62925;SDS011;55732;52.248;-0.844;2023-07-24T02:04:50;1.80;;;0.80;;
62925;SDS011;55732;52.248;-0.844;2023-07-24T02:07:15;0.80;;;0.80;;
62925;SDS011;55732;52.248;-0.844;2023-07-24T02:09:41;0.80;;;0.80;;
62925;SDS011;55732;52.248;-0.844;2023-07-24T02:12:06;0.70;;;0.70;;
62925;SDS011;55732;52.248;-0.844;2023-07-24T02:14:32;0.60;;;0.60;;
62925;SDS011;55732;52.248;-0.844;2023-07-24T02:16:57;0.60;;;0.60;;
62925;SDS011;55732;52.248;-0.844;2023-07-24T02:19:23;0.40;;;0.40;;
62925;SDS011;55732;52.248;-0.844;2023-07-24T02:21:48;0.70;;;0.50;;
62925;SDS011;55732;52.248;-0.844;2023-07-24T02:24:14;0.80;;;0.60;;
62925;SDS011;55732;52.248;-0.844;2023-07-24T02:26:39;0.50;;;0.40;;
62925;SDS011;55732;52.248;-0.844;2023-07-24T02:29:04;1.40;;;0.60;;
62925;SDS011;55732;52.248;-0.844;2023-07-24T02:31:30;0.90;;;0.50;;
62925;SDS011;55732;52.248;-0.844;2023-07-24T02:33:55;0.70;;;0.50;;
62925;SDS011;55732;52.248;-0.844;2023-07-24T02:36:21;0.40;;;0.40;;
62925;SDS011;55732;52.248;-0.844;2023-07-24T02:38:49;0.60;;;0.50;;
62925;SDS011;55732;52.248;-0.844;2023-07-24T02:41:14;0.90;;;0.50;;
62925;SDS011;55732;52.248;-0.844;2023-07-24T02:43:39;0.40;;;0.40;;
62925;SDS011;55732;52.248;-0.844;2023-07-24T02:46:05;0.50;;;0.50;;
62925;SDS011;55732;52.248;-0.844;2023-07-24T02:48:30;0.50;;;0.50;;
62925;SDS011;55732;52.248;-0.844;2023-07-24T02:50:56;0.50;;;0.50;;
62925;SDS011;55732;52.248;-0.844;2023-07-24T02:53:21;0.50;;;0.50;;
62925;SDS011;55732;52.248;-0.844;2023-07-24T02:55:47;0.90;;;0.90;;
62925;SDS011;55732;52.248;-0.844;2023-07-24T02:58:12;0.90;;;0.90;;
62925;SDS011;55732;52.248;-0.844;2023-07-24T03:00:39;1.10;;;0.80;;
62925;SDS011;55732;52.248;-0.844;2023-07-24T03:03:04;1.10;;;0.70;;
62925;SDS011;55732;52.248;-0.844;2023-07-24T03:05:30;1.10;;;0.90;;
62925;SDS011;55732;52.248;-0.844;2023-07-24T03:07:56;0.80;;;0.70;;
62925;SDS011;55732;52.248;-0.844;2023-07-24T03:10:22;1.20;;;1.00;;
62925;SDS011;55732;52.248;-0.844;2023-07-24T03:12:49;2.40;;;1.50;;
62925;SDS011;55732;52.248;-0.844;2023-07-24T03:15:14;0.70;;;0.60;;
62925;SDS011;55732;52.248;-0.844;2023-07-24T03:17:39;1.10;;;1.00;;
62925;SDS011;55732;52.248;-0.844;2023-07-24T03:20:13;2.50;;;1.10;;
62925;SDS011;55732;52.248;-0.844;2023-07-24T03:22:41;1.40;;;0.80;;
62925;SDS011;55732;52.248;-0.844;2023-07-24T03:25:07;0.80;;;0.60;;
62925;SDS011;55732;52.248;-0.844;2023-07-24T03:27:33;1.30;;;0.90;;
62925;SDS011;55732;52.248;-0.844;2023-07-24T03:29:58;2.00;;;1.00;;
62925;SDS011;55732;52.248;-0.844;2023-07-24T03:32:24;0.60;;;0.60;;
62925;SDS011;55732;52.248;-0.844;2023-07-24T03:34:49;2.10;;;1.20;;
62925;SDS011;55732;52.248;-0.844;2023-07-24T03:37:15;1.00;;;0.90;;
62925;SDS011;55732;52.248;-0.844;2023-07-24T03:39:40;1.60;;;0.90;;
62925;SDS011;55732;52.248;-0.844;2023-07-24T03:42:06;1.40;;;1.20;;
62925;SDS011;55732;52.248;-0.844;2023-07-24T03:44:31;2.50;;;1.00;;
62925;SDS011;55732;52.248;-0.844;2023-07-24T03:46:56;5.40;;;1.20;;
62925;SDS011;55732;52.248;-0.844;2023-07-24T03:49:22;2.80;;;1.10;;
62925;SDS011;55732;52.248;-0.844;2023-07-24T03:51:48;1.20;;;1.10;;
62925;SDS011;55732;52.248;-0.844;2023-07-24T03:54:13;0.90;;;0.90;;
62925;SDS011;55732;52.248;-0.844;2023-07-24T03:56:42;2.20;;;1.00;;
62925;SDS011;55732;52.248;-0.844;2023-07-24T03:59:28;0.90;;;0.90;;
62925;SDS011;55732;52.248;-0.844;2023-07-24T04:01:53;0.90;;;0.90;;
62925;SDS011;55732;52.248;-0.844;2023-07-24T04:04:19;1.50;;;1.20;;
62925;SDS011;55732;52.248;-0.844;2023-07-24T04:06:45;2.60;;;1.10;;
62925;SDS011;55732;52.248;-0.844;2023-07-24T04:09:11;3.10;;;1.20;;
62925;SDS011;55732;52.248;-0.844;2023-07-24T04:11:39;2.00;;;1.00;;
62925;SDS011;55732;52.248;-0.844;2023-07-24T04:14:05;1.00;;;1.00;;
62925;SDS011;55732;52.248;-0.844;2023-07-24T04:16:30;2.30;;;1.10;;
62925;SDS011;55732;52.248;-0.844;2023-07-24T04:18:56;1.10;;;1.10;;
62925;SDS011;55732;52.248;-0.844;2023-07-24T04:21:22;1.50;;;1.10;;
62925;SDS011;55732;52.248;-0.844;2023-07-24T04:23:48;1.20;;;1.10;;
62925;SDS011;55732;52.248;-0.844;2023-07-24T04:26:13;1.10;;;0.80;;
62925;SDS011;55732;52.248;-0.844;2023-07-24T04:28:38;2.70;;;1.20;;
62925;SDS011;55732;52.248;-0.844;2023-07-24T04:31:04;1.20;;;1.10;;
62925;SDS011;55732;52.248;-0.844;2023-07-24T04:33:29;0.80;;;0.80;;
62925;SDS011;55732;52.248;-0.844;2023-07-24T04:35:55;1.60;;;1.20;;
62925;SDS011;55732;52.248;-0.844;2023-07-24T04:38:21;2.10;;;1.00;;
62925;SDS011;55732;52.248;-0.844;2023-07-24T04:40:47;0.70;;;0.70;;
62925;SDS011;55732;52.248;-0.844;2023-07-24T04:43:12;2.30;;;1.10;;
62925;SDS011;55732;52.248;-0.844;2023-07-24T04:45:37;0.90;;;0.90;;
62925;SDS011;55732;52.248;-0.844;2023-07-24T04:48:03;2.00;;;1.00;;
62925;SDS011;55732;52.248;-0.844;2023-07-24T04:50:29;2.00;;;1.20;;
62925;SDS011;55732;52.248;-0.844;2023-07-24T04:52:55;3.60;;;1.00;;
62925;SDS011;55732;52.248;-0.844;2023-07-24T04:55:20;1.30;;;0.90;;
62925;SDS011;55732;52.248;-0.844;2023-07-24T04:57:46;0.90;;;0.90;;
62925;SDS011;55732;52.248;-0.844;2023-07-24T05:00:12;1.20;;;1.10;;
62925;SDS011;55732;52.248;-0.844;2023-07-24T05:02:38;0.90;;;0.90;;
62925;SDS011;55732;52.248;-0.844;2023-07-24T05:05:04;1.00;;;0.90;;
62925;SDS011;55732;52.248;-0.844;2023-07-24T05:07:30;1.20;;;1.00;;
62925;SDS011;55732;52.248;-0.844;2023-07-24T05:09:56;1.10;;;1.10;;
62925;SDS011;55732;52.248;-0.844;2023-07-24T05:12:21;1.00;;;1.00;;
62925;SDS011;55732;52.248;-0.844;2023-07-24T05:14:46;1.20;;;1.00;;
62925;SDS011;55732;52.248;-0.844;2023-07-24T05:17:12;1.30;;;1.00;;
62925;SDS011;55732;52.248;-0.844;2023-07-24T05:19:37;1.00;;;0.80;;
62925;SDS011;55732;52.248;-0.844;2023-07-24T05:22:03;1.90;;;1.30;;
62925;SDS011;55732;52.248;-0.844;2023-07-24T05:24:28;1.00;;;1.00;;
62925;SDS011;55732;52.248;-0.844;2023-07-24T05:26:54;0.90;;;0.90;;
62925;SDS011;55732;52.248;-0.844;2023-07-24T05:29:19;1.60;;;1.20;;
62925;SDS011;55732;52.248;-0.844;2023-07-24T05:31:45;1.20;;;1.10;;
62925;SDS011;55732;52.248;-0.844;2023-07-24T05:34:10;2.50;;;1.00;;
62925;SDS011;55732;52.248;-0.844;2023-07-24T05:36:36;1.30;;;1.20;;
62925;SDS011;55732;52.248;-0.844;2023-07-24T05:39:01;1.30;;;1.20;;
62925;SDS011;55732;52.248;-0.844;2023-07-24T05:41:27;1.00;;;1.00;;
62925;SDS011;55732;52.248;-0.844;2023-07-24T05:43:52;1.10;;;1.00;;
62925;SDS011;55732;52.248;-0.844;2023-07-24T05:46:17;1.30;;;1.20;;
62925;SDS011;55732;52.248;-0.844;2023-07-24T05:48:44;1.40;;;1.30;;
62925;SDS011;55732;52.248;-0.844;2023-07-24T05:51:09;2.90;;;1.20;;
62925;SDS011;55732;52.248;-0.844;2023-07-24T05:53:35;1.20;;;0.90;;
62925;SDS011;55732;52.248;-0.844;2023-07-24T05:56:02;1.00;;;0.90;;
62925;SDS011;55732;52.248;-0.844;2023-07-24T05:58:28;1.40;;;1.10;;
62925;SDS011;55732;52.248;-0.844;2023-07-24T06:00:54;1.20;;;1.10;;
62925;SDS011;55732;52.248;-0.844;2023-07-24T06:03:23;2.00;;;1.30;;
62925;SDS011;55732;52.248;-0.844;2023-07-24T06:05:52;1.40;;;1.30;;
62925;SDS011;55732;52.248;-0.844;2023-07-24T06:08:19;2.50;;;1.30;;
62925;SDS011;55732;52.248;-0.844;2023-07-24T06:10:48;1.40;;;1.30;;
62925;SDS011;55732;52.248;-0.844;2023-07-24T06:13:18;1.70;;;1.50;;
62925;SDS011;55732;52.248;-0.844;2023-07-24T06:15:46;2.60;;;1.50;;
62925;SDS011;55732;52.248;-0.844;2023-07-24T06:18:13;1.90;;;1.50;;
62925;SDS011;55732;52.248;-0.844;2023-07-24T06:20:39;1.60;;;1.50;;
62925;SDS011;55732;52.248;-0.844;2023-07-24T06:23:04;1.70;;;1.40;;
62925;SDS011;55732;52.248;-0.844;2023-07-24T06:25:30;1.70;;;1.60;;
62925;SDS011;55732;52.248;-0.844;2023-07-24T06:27:56;1.90;;;1.50;;
62925;SDS011;55732;52.248;-0.844;2023-07-24T06:30:22;1.80;;;1.30;;
62925;SDS011;55732;52.248;-0.844;2023-07-24T06:32:48;2.30;;;1.30;;
62925;SDS011;55732;52.248;-0.844;2023-07-24T06:35:13;1.90;;;1.60;;
62925;SDS011;55732;52.248;-0.844;2023-07-24T06:37:39;1.70;;;1.60;;
62925;SDS011;55732;52.248;-0.844;2023-07-24T06:40:05;1.70;;;1.50;;
62925;SDS011;55732;52.248;-0.844;2023-07-24T06:42:32;2.00;;;1.60;;
62925;SDS011;55732;52.248;-0.844;2023-07-24T06:44:57;4.10;;;1.70;;
62925;SDS011;55732;52.248;-0.844;2023-07-24T06:47:23;2.10;;;1.70;;
62925;SDS011;55732;52.248;-0.844;2023-07-24T06:49:49;1.60;;;1.50;;
62925;SDS011;55732;52.248;-0.844;2023-07-24T06:52:14;4.70;;;1.80;;
62925;SDS011;55732;52.248;-0.844;2023-07-24T06:54:40;3.60;;;1.40;;
62925;SDS011;55732;52.248;-0.844;2023-07-24T06:57:05;5.30;;;1.70;;
62925;SDS011;55732;52.248;-0.844;2023-07-24T06:59:31;2.00;;;1.70;;
62925;SDS011;55732;52.248;-0.844;2023-07-24T07:01:57;2.30;;;1.50;;
62925;SDS011;55732;52.248;-0.844;2023-07-24T07:04:22;5.30;;;1.80;;
62925;SDS011;55732;52.248;-0.844;2023-07-24T07:06:48;2.10;;;1.60;;
62925;SDS011;55732;52.248;-0.844;2023-07-24T07:09:13;1.90;;;1.50;;
62925;SDS011;55732;52.248;-0.844;2023-07-24T07:11:38;2.60;;;1.70;;
62925;SDS011;55732;52.248;-0.844;2023-07-24T07:14:04;2.20;;;1.70;;
62925;SDS011;55732;52.248;-0.844;2023-07-24T07:16:29;3.40;;;1.60;;
62925;SDS011;55732;52.248;-0.844;2023-07-24T07:18:55;1.90;;;1.50;;
62925;SDS011;55732;52.248;-0.844;2023-07-24T07:21:20;2.40;;;1.60;;
62925;SDS011;55732;52.248;-0.844;2023-07-24T07:23:45;1.90;;;1.60;;
62925;SDS011;55732;52.248;-0.844;2023-07-24T07:26:11;2.10;;;1.60;;
62925;SDS011;55732;52.248;-0.844;2023-07-24T07:28:36;2.90;;;1.50;;
62925;SDS011;55732;52.248;-0.844;2023-07-24T07:31:03;3.30;;;1.50;;
62925;SDS011;55732;52.248;-0.844;2023-07-24T07:33:28;2.70;;;1.50;;
62925;SDS011;55732;52.248;-0.844;2023-07-24T07:35:54;1.70;;;1.60;;
62925;SDS011;55732;52.248;-0.844;2023-07-24T07:38:20;4.00;;;1.60;;
62925;SDS011;55732;52.248;-0.844;2023-07-24T07:40:47;3.20;;;2.10;;
62925;SDS011;55732;52.248;-0.844;2023-07-24T07:43:13;1.60;;;1.50;;
62925;SDS011;55732;52.248;-0.844;2023-07-24T07:45:38;2.40;;;1.70;;
62925;SDS011;55732;52.248;-0.844;2023-07-24T07:48:04;1.40;;;1.30;;
62925;SDS011;55732;52.248;-0.844;2023-07-24T07:50:30;3.10;;;1.70;;
62925;SDS011;55732;52.248;-0.844;2023-07-24T07:52:55;2.00;;;1.70;;
62925;SDS011;55732;52.248;-0.844;2023-07-24T07:55:20;4.10;;;1.70;;
62925;SDS011;55732;52.248;-0.844;2023-07-24T07:57:46;2.50;;;1.60;;
62925;SDS011;55732;52.248;-0.844;2023-07-24T08:00:11;1.50;;;1.40;;
62925;SDS011;55732;52.248;-0.844;2023-07-24T08:02:37;4.60;;;1.80;;
62925;SDS011;55732;52.248;-0.844;2023-07-24T08:05:09;5.30;;;1.90;;
62925;SDS011;55732;52.248;-0.844;2023-07-24T08:07:36;2.50;;;1.80;;
62925;SDS011;55732;52.248;-0.844;2023-07-24T08:10:02;2.70;;;1.80;;
62925;SDS011;55732;52.248;-0.844;2023-07-24T08:12:28;2.50;;;1.80;;
62925;SDS011;55732;52.248;-0.844;2023-07-24T08:14:53;4.40;;;1.80;;
62925;SDS011;55732;52.248;-0.844;2023-07-24T08:17:18;3.90;;;2.10;;
62925;SDS011;55732;52.248;-0.844;2023-07-24T08:19:45;3.20;;;1.60;;
62925;SDS011;55732;52.248;-0.844;2023-07-24T08:22:10;1.90;;;1.70;;
62925;SDS011;55732;52.248;-0.844;2023-07-24T08:24:36;2.50;;;1.60;;
62925;SDS011;55732;52.248;-0.844;2023-07-24T08:27:02;1.70;;;1.50;;
62925;SDS011;55732;52.248;-0.844;2023-07-24T08:29:28;1.80;;;1.40;;
62925;SDS011;55732;52.248;-0.844;2023-07-24T08:31:53;2.00;;;1.30;;
62925;SDS011;55732;52.248;-0.844;2023-07-24T08:34:18;2.00;;;1.40;;
62925;SDS011;55732;52.248;-0.844;2023-07-24T08:36:44;1.50;;;1.30;;
62925;SDS011;55732;52.248;-0.844;2023-07-24T08:39:09;1.70;;;1.50;;
62925;SDS011;55732;52.248;-0.844;2023-07-24T08:41:34;3.10;;;1.50;;
62925;SDS011;55732;52.248;-0.844;2023-07-24T08:44:02;1.80;;;1.40;;
62925;SDS011;55732;52.248;-0.844;2023-07-24T08:46:30;1.20;;;1.20;;
62925;SDS011;55732;52.248;-0.844;2023-07-24T08:49:00;2.20;;;1.40;;
62925;SDS011;55732;52.248;-0.844;2023-07-24T08:51:26;2.10;;;1.60;;
62925;SDS011;55732;52.248;-0.844;2023-07-24T08:53:53;1.40;;;1.30;;
62925;SDS011;55732;52.248;-0.844;2023-07-24T08:56:19;1.50;;;1.40;;
62925;SDS011;55732;52.248;-0.844;2023-07-24T08:58:44;3.90;;;1.60;;
62925;SDS011;55732;52.248;-0.844;2023-07-24T09:01:10;2.80;;;1.30;;
62925;SDS011;55732;52.248;-0.844;2023-07-24T09:03:36;1.20;;;1.20;;
62925;SDS011;55732;52.248;-0.844;2023-07-24T09:06:01;1.20;;;1.20;;
62925;SDS011;55732;52.248;-0.844;2023-07-24T09:10:59;1.70;;;1.60;;
62925;SDS011;55732;52.248;-0.844;2023-07-24T09:13:25;1.90;;;1.80;;
62925;SDS011;55732;52.248;-0.844;2023-07-24T09:15:51;1.30;;;1.20;;
62925;SDS011;55732;52.248;-0.844;2023-07-24T09:18:16;2.40;;;1.40;;
62925;SDS011;55732;52.248;-0.844;2023-07-24T09:20:43;1.40;;;1.30;;
62925;SDS011;55732;52.248;-0.844;2023-07-24T09:23:09;1.70;;;1.10;;
62925;SDS011;55732;52.248;-0.844;2023-07-24T09:25:37;1.40;;;1.30;;
62925;SDS011;55732;52.248;-0.844;2023-07-24T09:28:14;2.40;;;1.60;;
62925;SDS011;55732;52.248;-0.844;2023-07-24T09:30:51;1.50;;;1.30;;
62925;SDS011;55732;52.248;-0.844;2023-07-24T09:33:21;1.90;;;1.20;;
62925;SDS011;55732;52.248;-0.844;2023-07-24T09:36:07;1.90;;;1.40;;
62925;SDS011;55732;52.248;-0.844;2023-07-24T09:38:34;1.70;;;1.30;;
62925;SDS011;55732;52.248;-0.844;2023-07-24T09:41:00;1.40;;;1.10;;
62925;SDS011;55732;52.248;-0.844;2023-07-24T09:45:54;3.10;;;1.50;;
62925;SDS011;55732;52.248;-0.844;2023-07-24T09:48:20;2.90;;;1.60;;
62925;SDS011;55732;52.248;-0.844;2023-07-24T09:50:53;2.40;;;1.50;;
62925;SDS011;55732;52.248;-0.844;2023-07-24T09:53:26;5.90;;;1.60;;
62925;SDS011;55732;52.248;-0.844;2023-07-24T09:58:25;2.10;;;1.60;;
62925;SDS011;55732;52.248;-0.844;2023-07-24T10:00:51;2.50;;;1.70;;
62925;SDS011;55732;52.248;-0.844;2023-07-24T10:03:18;3.50;;;1.70;;
62925;SDS011;55732;52.248;-0.844;2023-07-24T10:05:45;2.60;;;1.50;;
62925;SDS011;55732;52.248;-0.844;2023-07-24T10:08:11;3.20;;;1.40;;
62925;SDS011;55732;52.248;-0.844;2023-07-24T10:10:40;2.50;;;1.80;;
62925;SDS011;55732;52.248;-0.844;2023-07-24T10:13:06;2.80;;;1.70;;
62925;SDS011;55732;52.248;-0.844;2023-07-24T10:15:36;3.60;;;1.50;;
62925;SDS011;55732;52.248;-0.844;2023-07-24T10:18:06;2.40;;;1.60;;
62925;SDS011;55732;52.248;-0.844;2023-07-24T10:20:36;2.70;;;1.40;;
62925;SDS011;55732;52.248;-0.844;2023-07-24T10:23:04;5.60;;;2.40;;
62925;SDS011;55732;52.248;-0.844;2023-07-24T10:25:31;2.80;;;1.60;;
62925;SDS011;55732;52.248;-0.844;2023-07-24T10:28:01;2.70;;;1.40;;
62925;SDS011;55732;52.248;-0.844;2023-07-24T10:30:45;3.00;;;1.60;;
62925;SDS011;55732;52.248;-0.844;2023-07-24T10:33:21;2.60;;;1.80;;
62925;SDS011;55732;52.248;-0.844;2023-07-24T10:35:47;3.70;;;1.70;;
62925;SDS011;55732;52.248;-0.844;2023-07-24T10:38:16;4.40;;;1.70;;
62925;SDS011;55732;52.248;-0.844;2023-07-24T10:40:43;2.80;;;1.60;;
62925;SDS011;55732;52.248;-0.844;2023-07-24T10:43:11;4.10;;;1.70;;
62925;SDS011;55732;52.248;-0.844;2023-07-24T10:48:18;3.10;;;1.60;;
62925;SDS011;55732;52.248;-0.844;2023-07-24T10:50:45;3.40;;;1.40;;
62925;SDS011;55732;52.248;-0.844;2023-07-24T10:53:14;3.10;;;1.80;;
62925;SDS011;55732;52.248;-0.844;2023-07-24T10:55:41;4.00;;;2.20;;
62925;SDS011;55732;52.248;-0.844;2023-07-24T10:58:07;4.20;;;1.60;;
62925;SDS011;55732;52.248;-0.844;2023-07-24T11:00:34;3.00;;;1.60;;
62925;SDS011;55732;52.248;-0.844;2023-07-24T11:02:59;3.80;;;1.80;;
62925;SDS011;55732;52.248;-0.844;2023-07-24T11:05:25;7.60;;;2.10;;
62925;SDS011;55732;52.248;-0.844;2023-07-24T11:07:50;4.80;;;3.20;;
62925;SDS011;55732;52.248;-0.844;2023-07-24T11:12:42;4.60;;;1.80;;
62925;SDS011;55732;52.248;-0.844;2023-07-24T11:15:07;8.30;;;2.10;;
62925;SDS011;55732;52.248;-0.844;2023-07-24T11:17:33;4.00;;;1.70;;
62925;SDS011;55732;52.248;-0.844;2023-07-24T11:20:14;4.70;;;1.90;;
62925;SDS011;55732;52.248;-0.844;2023-07-24T11:22:41;4.90;;;1.80;;
62925;SDS011;55732;52.248;-0.844;2023-07-24T11:25:08;4.70;;;2.10;;
62925;SDS011;55732;52.248;-0.844;2023-07-24T11:27:38;4.60;;;1.80;;
62925;SDS011;55732;52.248;-0.844;2023-07-24T11:30:09;4.10;;;1.70;;
62925;SDS011;55732;52.248;-0.844;2023-07-24T11:32:37;4.40;;;1.90;;
62925;SDS011;55732;52.248;-0.844;2023-07-24T11:35:07;5.80;;;1.80;;
62925;SDS011;55732;52.248;-0.844;2023-07-24T11:37:33;6.90;;;1.90;;
62925;SDS011;55732;52.248;-0.844;2023-07-24T11:40:00;5.90;;;1.90;;
62925;SDS011;55732;52.248;-0.844;2023-07-24T11:42:30;4.10;;;1.90;;
62925;SDS011;55732;52.248;-0.844;2023-07-24T11:44:55;5.10;;;2.10;;
62925;SDS011;55732;52.248;-0.844;2023-07-24T11:47:21;6.00;;;2.20;;
62925;SDS011;55732;52.248;-0.844;2023-07-24T11:49:56;5.90;;;1.80;;
62925;SDS011;55732;52.248;-0.844;2023-07-24T11:52:23;6.30;;;2.10;;
62925;SDS011;55732;52.248;-0.844;2023-07-24T11:54:55;7.10;;;2.10;;
62925;SDS011;55732;52.248;-0.844;2023-07-24T11:57:28;6.70;;;2.10;;
62925;SDS011;55732;52.248;-0.844;2023-07-24T11:59:54;3.80;;;1.90;;
62925;SDS011;55732;52.248;-0.844;2023-07-24T12:02:23;7.30;;;1.90;;
62925;SDS011;55732;52.248;-0.844;2023-07-24T12:04:59;4.60;;;1.90;;
62925;SDS011;55732;52.248;-0.844;2023-07-24T12:07:34;5.20;;;1.80;;
62925;SDS011;55732;52.248;-0.844;2023-07-24T12:10:01;6.40;;;1.90;;
62925;SDS011;55732;52.248;-0.844;2023-07-24T12:12:45;5.20;;;1.90;;
62925;SDS011;55732;52.248;-0.844;2023-07-24T12:15:12;2.90;;;1.60;;
62925;SDS011;55732;52.248;-0.844;2023-07-24T12:17:39;5.40;;;2.00;;
62925;SDS011;55732;52.248;-0.844;2023-07-24T12:20:06;5.60;;;1.90;;
62925;SDS011;55732;52.248;-0.844;2023-07-24T12:22:35;4.20;;;1.70;;
62925;SDS011;55732;52.248;-0.844;2023-07-24T12:25:02;5.30;;;1.90;;
62925;SDS011;55732;52.248;-0.844;2023-07-24T12:27:28;3.20;;;1.60;;
62925;SDS011;55732;52.248;-0.844;2023-07-24T12:29:53;6.90;;;2.00;;
62925;SDS011;55732;52.248;-0.844;2023-07-24T12:32:19;5.00;;;1.70;;
62925;SDS011;55732;52.248;-0.844;2023-07-24T12:34:46;4.70;;;2.00;;
62925;SDS011;55732;52.248;-0.844;2023-07-24T12:37:12;4.10;;;2.00;;
62925;SDS011;55732;52.248;-0.844;2023-07-24T12:39:37;3.40;;;1.90;;
62925;SDS011;55732;52.248;-0.844;2023-07-24T12:42:02;11.90;;;2.00;;
62925;SDS011;55732;52.248;-0.844;2023-07-24T12:44:28;4.20;;;2.20;;
62925;SDS011;55732;52.248;-0.844;2023-07-24T12:46:53;4.90;;;2.00;;
62925;SDS011;55732;52.248;-0.844;2023-07-24T12:49:19;4.70;;;1.90;;
62925;SDS011;55732;52.248;-0.844;2023-07-24T12:51:44;6.40;;;1.90;;
62925;SDS011;55732;52.248;-0.844;2023-07-24T12:54:09;3.60;;;1.90;;
62925;SDS011;55732;52.248;-0.844;2023-07-24T12:56:35;10.40;;;2.40;;
62925;SDS011;55732;52.248;-0.844;2023-07-24T12:59:01;7.60;;;2.00;;
62925;SDS011;55732;52.248;-0.844;2023-07-24T13:01:26;6.40;;;2.00;;
62925;SDS011;55732;52.248;-0.844;2023-07-24T13:03:54;8.30;;;2.50;;
62925;SDS011;55732;52.248;-0.844;2023-07-24T13:06:19;5.90;;;2.10;;
62925;SDS011;55732;52.248;-0.844;2023-07-24T13:08:45;5.70;;;1.80;;
62925;SDS011;55732;52.248;-0.844;2023-07-24T13:11:10;9.70;;;2.30;;
62925;SDS011;55732;52.248;-0.844;2023-07-24T13:13:35;7.30;;;2.00;;
62925;SDS011;55732;52.248;-0.844;2023-07-24T13:16:01;7.80;;;2.80;;
62925;SDS011;55732;52.248;-0.844;2023-07-24T13:18:27;3.50;;;1.50;;
62925;SDS011;55732;52.248;-0.844;2023-07-24T13:20:53;3.50;;;1.90;;
62925;SDS011;55732;52.248;-0.844;2023-07-24T13:23:18;4.20;;;1.60;;
62925;SDS011;55732;52.248;-0.844;2023-07-24T13:25:43;3.30;;;1.70;;
62925;SDS011;55732;52.248;-0.844;2023-07-24T13:28:09;5.90;;;2.00;;
62925;SDS011;55732;52.248;-0.844;2023-07-24T13:30:35;6.00;;;1.90;;
62925;SDS011;55732;52.248;-0.844;2023-07-24T13:33:00;6.40;;;1.90;;
62925;SDS011;55732;52.248;-0.844;2023-07-24T13:35:25;3.70;;;1.90;;
62925;SDS011;55732;52.248;-0.844;2023-07-24T13:37:51;3.30;;;1.70;;
62925;SDS011;55732;52.248;-0.844;2023-07-24T13:40:16;11.50;;;2.00;;
62925;SDS011;55732;52.248;-0.844;2023-07-24T13:42:41;5.50;;;1.70;;
62925;SDS011;55732;52.248;-0.844;2023-07-24T13:45:07;7.70;;;2.20;;
62925;SDS011;55732;52.248;-0.844;2023-07-24T13:47:32;3.90;;;1.80;;
62925;SDS011;55732;52.248;-0.844;2023-07-24T13:49:58;7.90;;;1.90;;
62925;SDS011;55732;52.248;-0.844;2023-07-24T13:52:25;4.20;;;2.30;;
62925;SDS011;55732;52.248;-0.844;2023-07-24T13:54:50;7.80;;;2.20;;
62925;SDS011;55732;52.248;-0.844;2023-07-24T13:57:15;3.20;;;1.50;;
62925;SDS011;55732;52.248;-0.844;2023-07-24T13:59:41;5.20;;;1.80;;
62925;SDS011;55732;52.248;-0.844;2023-07-24T14:02:06;5.90;;;1.90;;
62925;SDS011;55732;52.248;-0.844;2023-07-24T14:04:31;4.90;;;1.90;;
62925;SDS011;55732;52.248;-0.844;2023-07-24T14:06:57;4.40;;;2.00;;
62925;SDS011;55732;52.248;-0.844;2023-07-24T14:09:22;8.30;;;2.00;;
62925;SDS011;55732;52.248;-0.844;2023-07-24T14:11:47;5.50;;;2.00;;
62925;SDS011;55732;52.248;-0.844;2023-07-24T14:14:13;2.90;;;1.70;;
62925;SDS011;55732;52.248;-0.844;2023-07-24T14:16:38;2.70;;;1.50;;
62925;SDS011;55732;52.248;-0.844;2023-07-24T14:19:04;6.20;;;1.80;;
62925;SDS011;55732;52.248;-0.844;2023-07-24T14:21:29;6.50;;;2.00;;
62925;SDS011;55732;52.248;-0.844;2023-07-24T14:23:55;5.70;;;1.90;;
62925;SDS011;55732;52.248;-0.844;2023-07-24T14:26:20;2.40;;;1.70;;
62925;SDS011;55732;52.248;-0.844;2023-07-24T14:28:46;5.10;;;1.70;;
62925;SDS011;55732;52.248;-0.844;2023-07-24T14:31:11;5.40;;;1.90;;
62925;SDS011;55732;52.248;-0.844;2023-07-24T14:33:36;3.00;;;1.80;;
62925;SDS011;55732;52.248;-0.844;2023-07-24T14:36:02;8.30;;;2.40;;
62925;SDS011;55732;52.248;-0.844;2023-07-24T14:38:27;5.50;;;2.60;;
62925;SDS011;55732;52.248;-0.844;2023-07-24T14:40:53;5.50;;;2.70;;
62925;SDS011;55732;52.248;-0.844;2023-07-24T14:43:18;7.20;;;2.50;;
62925;SDS011;55732;52.248;-0.844;2023-07-24T14:45:43;5.40;;;1.60;;
62925;SDS011;55732;52.248;-0.844;2023-07-24T14:48:09;3.90;;;1.60;;